createdAt,value
2022-09-23T00:00:22.465Z,1013.861
2022-09-23T00:05:34.823Z,1013.802
2022-09-23T00:10:47.145Z,1013.813
2022-09-23T00:15:59.359Z,1013.743
2022-09-23T00:21:11.699Z,1013.71
2022-09-23T00:26:24.001Z,1013.666
2022-09-23T00:31:36.429Z,1013.669
2022-09-23T00:36:48.775Z,1013.574
2022-09-23T00:42:01.083Z,1013.603
2022-09-23T00:47:13.506Z,1013.559
2022-09-23T00:52:25.954Z,1013.575
2022-09-23T00:57:38.198Z,1013.508
2022-09-23T01:02:50.665Z,1013.52
2022-09-23T01:08:02.874Z,1013.436
2022-09-23T01:13:15.627Z,1013.396
2022-09-23T01:18:27.959Z,1013.352
2022-09-23T01:23:40.300Z,1013.299
2022-09-23T01:28:52.834Z,1013.261
2022-09-23T01:34:05.025Z,1013.226
2022-09-23T01:39:17.391Z,1013.186
2022-09-23T01:44:29.993Z,1013.162
2022-09-23T01:49:42.415Z,1013.153
2022-09-23T01:54:54.776Z,1013.125
2022-09-23T02:00:06.966Z,1013.081
2022-09-23T02:05:19.281Z,1013.062
2022-09-23T02:10:31.547Z,1013.045
2022-09-23T02:15:44.054Z,1012.951
2022-09-23T02:20:56.039Z,1012.907
2022-09-23T02:26:08.433Z,1012.802
2022-09-23T02:31:20.868Z,1012.788
2022-09-23T02:36:33.219Z,1012.733
2022-09-23T02:41:45.500Z,1012.624
2022-09-23T02:46:57.871Z,1012.615
2022-09-23T02:52:10.482Z,1012.531
2022-09-23T02:57:22.826Z,1012.464
2022-09-23T03:02:35.305Z,1012.452
2022-09-23T03:07:47.758Z,1012.492
2022-09-23T03:13:00.249Z,1012.422
2022-09-23T03:18:12.312Z,1012.383
2022-09-23T03:23:24.751Z,1012.369
2022-09-23T03:28:36.982Z,1012.314
2022-09-23T03:33:49.374Z,1012.325
2022-09-23T03:39:01.827Z,1012.298
2022-09-23T03:44:14.179Z,1012.198
2022-09-23T03:49:26.551Z,1012.168
2022-09-23T03:54:38.882Z,1012.136
2022-09-23T03:59:51.339Z,1012.086
2022-09-23T04:05:03.502Z,1012.102
2022-09-23T04:10:16.038Z,1012.083
2022-09-23T04:15:28.510Z,1012.014
2022-09-23T04:20:41.023Z,1011.998
2022-09-23T04:25:53.331Z,1011.951
2022-09-23T04:31:06.074Z,1011.947
2022-09-23T04:36:18.186Z,1011.858
2022-09-23T04:41:30.618Z,1011.832
2022-09-23T04:46:43.117Z,1011.811
2022-09-23T04:51:55.465Z,1011.808
2022-09-23T04:57:07.779Z,1011.781
2022-09-23T05:02:20.381Z,1011.784
2022-09-23T05:07:32.645Z,1011.807
2022-09-23T05:12:45.227Z,1011.768
2022-09-23T05:17:57.658Z,1011.746
2022-09-23T05:23:10.024Z,1011.797
2022-09-23T05:28:22.665Z,1011.862
2022-09-23T05:33:35.106Z,1011.803
2022-09-23T05:38:47.500Z,1011.836
2022-09-23T05:43:59.825Z,1011.797
2022-09-23T05:49:12.305Z,1011.863
2022-09-23T05:54:24.764Z,1011.832
2022-09-23T05:59:36.982Z,1011.815
2022-09-23T06:04:49.290Z,1011.802
2022-09-23T06:10:01.633Z,1011.792
2022-09-23T06:15:14.006Z,1011.815
2022-09-23T06:20:26.482Z,1011.809
2022-09-23T06:25:38.900Z,1011.82
2022-09-23T06:30:51.455Z,1011.831
2022-09-23T06:36:04.186Z,1011.803
2022-09-23T06:41:16.696Z,1011.846
2022-09-23T06:46:28.963Z,1011.9
2022-09-23T06:51:41.272Z,1011.909
2022-09-23T06:56:53.662Z,1011.924
2022-09-23T07:02:06.197Z,1011.917
2022-09-23T07:07:18.664Z,1011.925
2022-09-23T07:12:31.250Z,1011.968
2022-09-23T07:17:43.795Z,1012.054
2022-09-23T07:22:56.363Z,1012.023
2022-09-23T07:28:08.724Z,1012.052
2022-09-23T07:33:31.288Z,1012.006
2022-09-23T07:38:33.522Z,1011.975
2022-09-23T07:43:45.819Z,1012.015
2022-09-23T07:48:58.159Z,1011.997
2022-09-23T07:54:10.686Z,1012.013
2022-09-23T07:59:23.091Z,1012.015
2022-09-23T08:04:35.312Z,1012.025
2022-09-23T08:09:48.079Z,1012.096
2022-09-23T08:15:00.468Z,1012
2022-09-23T08:20:12.711Z,1012.018
2022-09-23T08:25:25.165Z,1011.943
2022-09-23T08:30:37.666Z,1011.895
2022-09-23T08:35:49.862Z,1011.922
2022-09-23T08:41:02.237Z,1011.876
2022-09-23T08:46:14.630Z,1011.842
2022-09-23T08:51:27.021Z,1011.802
2022-09-23T08:56:39.274Z,1011.75
2022-09-23T09:01:51.604Z,1011.714
2022-09-23T09:07:24.864Z,1011.701
2022-09-23T09:12:16.693Z,1011.758
2022-09-23T09:17:32.978Z,1011.753
2022-09-23T09:22:41.687Z,1011.742
2022-09-23T09:27:54.142Z,1011.69
2022-09-23T09:33:06.546Z,1011.648
2022-09-23T09:38:19.060Z,1011.646
2022-09-23T09:43:32.331Z,1011.635
2022-09-23T09:48:43.624Z,1011.516
2022-09-23T09:53:56.008Z,1011.477
2022-09-23T09:59:08.388Z,1011.253
2022-09-23T10:04:21.014Z,1011.314
2022-09-23T10:09:33.373Z,1011.321
2022-09-23T10:14:45.719Z,1011.377
2022-09-23T10:19:58.023Z,1011.303
2022-09-23T10:25:10.549Z,1011.341
2022-09-23T10:30:23.002Z,1011.2
2022-09-23T10:35:35.485Z,1011.265
2022-09-23T10:40:47.903Z,1011.116
2022-09-23T10:46:00.609Z,1011.194
2022-09-23T10:51:12.895Z,1011.182
2022-09-23T10:56:25.103Z,1011.243
2022-09-23T11:01:38.461Z,1011.11
2022-09-23T11:06:50.802Z,1011.077
2022-09-23T11:12:03.272Z,1010.962
2022-09-23T11:17:15.763Z,1010.946
2022-09-23T11:22:28.054Z,1010.947
2022-09-23T11:27:40.274Z,1010.723
2022-09-23T11:32:52.857Z,1010.697
2022-09-23T11:38:05.084Z,1010.723
2022-09-23T11:43:17.360Z,1010.548
2022-09-23T11:48:29.938Z,1010.5
2022-09-23T11:53:42.043Z,1010.605
2022-09-23T11:58:58.902Z,1010.443
2022-09-23T12:04:16.122Z,1010.446
2022-09-23T12:09:27.212Z,1010.256
2022-09-23T12:14:31.841Z,1010.357
2022-09-23T12:19:44.281Z,1010.276
2022-09-23T12:24:56.637Z,1010.279
2022-09-23T12:30:08.839Z,1010.254
2022-09-23T12:35:21.455Z,1009.991
2022-09-23T12:40:34.082Z,1009.963
2022-09-23T12:45:46.379Z,1009.899
2022-09-23T12:50:58.955Z,1009.92
2022-09-23T12:56:11.216Z,1009.922
2022-09-23T13:01:23.758Z,1009.729
2022-09-23T13:06:35.876Z,1009.872
2022-09-23T13:11:48.405Z,1009.774
2022-09-23T13:17:00.897Z,1009.718
2022-09-23T13:22:12.964Z,1009.53
2022-09-23T13:27:25.278Z,1009.53
2022-09-23T13:32:37.687Z,1009.566
2022-09-23T13:37:50.261Z,1009.614
2022-09-23T13:43:02.410Z,1009.437
2022-09-23T13:48:14.761Z,1009.337
2022-09-23T13:53:27.233Z,1009.133
2022-09-23T13:58:39.395Z,1009.256
2022-09-23T14:03:51.538Z,1009.093
2022-09-23T14:09:03.668Z,1009.106
2022-09-23T14:14:16.020Z,1009.071
2022-09-23T14:19:27.890Z,1008.929
2022-09-23T14:24:40.263Z,1008.852
2022-09-23T14:29:52.550Z,1008.727
2022-09-23T14:35:05.033Z,1008.735
2022-09-23T14:40:17.867Z,1008.73
2022-09-23T14:45:30.391Z,1008.805
2022-09-23T14:50:42.522Z,1008.659
2022-09-23T14:55:54.890Z,1008.721
2022-09-23T15:01:07.123Z,1008.645
2022-09-23T15:06:19.513Z,1008.536
2022-09-23T15:11:31.882Z,1008.58
2022-09-23T15:16:44.381Z,1008.552
2022-09-23T15:21:56.602Z,1008.485
2022-09-23T15:27:08.994Z,1008.458
2022-09-23T15:32:21.335Z,1008.362
2022-09-23T15:37:36.247Z,1008.303
2022-09-23T15:42:46.307Z,1008.283
2022-09-23T15:47:58.604Z,1008.275
2022-09-23T15:53:10.959Z,1008.24
2022-09-23T15:58:23.171Z,1008.201
2022-09-23T16:03:35.502Z,1008.211
2022-09-23T16:08:47.943Z,1008.21
2022-09-23T16:14:00.375Z,1008.169
2022-09-23T16:19:12.681Z,1008.145
2022-09-23T16:24:28.131Z,1008.233
2022-09-23T16:29:37.339Z,1008.148
2022-09-23T16:34:49.445Z,1008.058
2022-09-23T16:40:01.757Z,1008.003
2022-09-23T16:45:13.798Z,1008.033
2022-09-23T16:50:26.070Z,1008.006
2022-09-23T16:55:38.375Z,1007.919
2022-09-23T17:00:50.940Z,1007.905
2022-09-23T17:06:07.331Z,1007.889
2022-09-23T17:11:15.496Z,1007.87
2022-09-23T17:16:27.869Z,1007.78
2022-09-23T17:21:39.949Z,1007.74
2022-09-23T17:26:53.340Z,1007.724
2022-09-23T17:32:04.683Z,1007.722
2022-09-23T17:37:16.894Z,1007.717
2022-09-23T17:42:29.351Z,1007.762
2022-09-23T17:47:42.044Z,1007.747
2022-09-23T17:52:54.289Z,1007.681
2022-09-23T17:58:06.621Z,1007.661
2022-09-23T18:03:18.993Z,1007.66
2022-09-23T18:08:31.260Z,1007.721
2022-09-23T18:13:43.482Z,1007.804
2022-09-23T18:18:56.026Z,1007.736
2022-09-23T18:24:31.127Z,1007.689
2022-09-23T18:29:20.663Z,1007.727
2022-09-23T18:34:33.219Z,1007.694
2022-09-23T18:39:45.430Z,1007.686
2022-09-23T18:44:57.936Z,1007.6
2022-09-23T18:50:10.386Z,1007.557
2022-09-23T18:55:22.898Z,1007.563
2022-09-23T19:00:35.449Z,1007.595
2022-09-23T19:05:47.680Z,1007.575
2022-09-23T19:11:00.281Z,1007.594
2022-09-23T19:16:12.575Z,1007.592
2022-09-23T19:21:25.159Z,1007.627
2022-09-23T19:26:37.934Z,1007.564
2022-09-23T19:31:50.383Z,1007.552
2022-09-23T19:37:02.836Z,1007.505
2022-09-23T19:42:15.327Z,1007.487
2022-09-23T19:47:27.678Z,1007.536
2022-09-23T19:52:39.917Z,1007.52
2022-09-23T19:57:52.912Z,1007.51
2022-09-23T20:03:05.102Z,1007.448
2022-09-23T20:08:17.570Z,1007.366
2022-09-23T20:13:30.276Z,1007.415
2022-09-23T20:18:42.697Z,1007.358
2022-09-23T20:23:55.162Z,1007.27
2022-09-23T20:29:07.630Z,1007.22
2022-09-23T20:34:20.493Z,1007.2
2022-09-23T20:39:32.842Z,1007.155
2022-09-23T20:44:45.238Z,1007.129
2022-09-23T20:49:57.802Z,1007.175
2022-09-23T20:55:10.226Z,1007.17
2022-09-23T21:00:22.724Z,1007.161
2022-09-23T21:05:35.159Z,1007.147
2022-09-23T21:10:47.815Z,1007.023
2022-09-23T21:16:00.136Z,1006.98
2022-09-23T21:21:12.437Z,1006.933
2022-09-23T21:26:24.781Z,1006.948
2022-09-23T21:31:37.028Z,1006.927
2022-09-23T21:36:49.402Z,1006.856
2022-09-23T21:42:01.710Z,1006.847
2022-09-23T21:47:14.217Z,1006.794
2022-09-23T21:52:26.482Z,1006.838
2022-09-23T21:57:39.042Z,1006.807
2022-09-23T22:02:51.246Z,1006.827
2022-09-23T22:08:03.489Z,1006.801
2022-09-23T22:13:16.197Z,1006.761
2022-09-23T22:18:28.538Z,1006.782
2022-09-23T22:23:40.918Z,1006.79
2022-09-23T22:28:53.456Z,1006.723
2022-09-23T22:34:05.651Z,1006.668
2022-09-23T22:39:17.890Z,1006.63
2022-09-23T22:44:30.230Z,1006.564
2022-09-23T22:49:42.738Z,1006.481
2022-09-23T22:54:55.062Z,1006.433
2022-09-23T23:00:07.375Z,1006.479
2022-09-23T23:05:19.933Z,1006.476
2022-09-23T23:10:32.349Z,1006.548
2022-09-23T23:15:44.730Z,1006.503
2022-09-23T23:20:56.878Z,1006.438
2022-09-23T23:26:09.898Z,1006.401
2022-09-23T23:31:21.509Z,1006.325
2022-09-23T23:36:33.653Z,1006.296
2022-09-23T23:41:46.091Z,1006.261
2022-09-23T23:46:58.610Z,1006.21
2022-09-23T23:52:11.153Z,1006.191
2022-09-23T23:57:23.368Z,1006.216
